Time;durP1;ratioP1;P1;durP2;ratioP2;P2;SDS_P1;SDS_P2;PMS_P1;PMS_P2;Temp;Humidity;BMP_temperature;BMP_pressure;BME280_temperature;BME280_humidity;BME280_pressure;Samples;Min_cycle;Max_cycle;Signal;HPM_P1;HPM_P2
2022/05/15 00:01:14;;;;;;;;;2.50;2.00;;;;;;;;5103727;27;61872;-86
2022/05/15 00:03:40;;;;;;;;;3.00;2.00;;;;;;;;5104250;27;61647;-86
2022/05/15 00:06:05;;;;;;;;;3.00;3.00;;;;;;;;5103411;27;61722;-85
2022/05/15 00:08:31;;;;;;;;;3.50;3.50;;;;;;;;5103092;27;61715;-86
2022/05/15 00:10:57;;;;;;;;;4.50;3.00;;;;;;;;5103751;27;61835;-86
2022/05/15 00:13:23;;;;;;;;;5.50;3.25;;;;;;;;5085308;27;61821;-86
2022/05/15 00:15:51;;;;;;;;;5.00;3.75;;;;;;;;5102790;27;61810;-86
2022/05/15 00:18:17;;;;;;;;;3.00;2.25;;;;;;;;5103437;27;61815;-86
2022/05/15 00:20:43;;;;;;;;;4.25;3.00;;;;;;;;5103638;27;61778;-86
2022/05/15 00:23:08;;;;;;;;;4.25;3.00;;;;;;;;5085063;27;61836;-86
2022/05/15 00:25:34;;;;;;;;;2.25;2.00;;;;;;;;5102913;27;61798;-86
2022/05/15 00:27:59;;;;;;;;;2.00;2.00;;;;;;;;5103808;27;61882;-86
2022/05/15 00:30:25;;;;;;;;;2.00;2.00;;;;;;;;5103180;27;62010;-86
2022/05/15 00:32:50;;;;;;;;;5.25;3.00;;;;;;;;5103342;27;61914;-86
2022/05/15 00:35:16;;;;;;;;;3.25;2.00;;;;;;;;5102706;27;61853;-86
2022/05/15 00:37:41;;;;;;;;;6.00;4.75;;;;;;;;5103341;27;62033;-86
2022/05/15 00:40:10;;;;;;;;;3.00;3.00;;;;;;;;5103574;27;61827;-85
2022/05/15 00:42:35;;;;;;;;;3.00;3.00;;;;;;;;5103617;27;61727;-86
2022/05/15 00:45:01;;;;;;;;;3.00;2.25;;;;;;;;5102652;27;61867;-85
2022/05/15 00:47:27;;;;;;;;;1.50;1.50;;;;;;;;5102122;27;61892;-86
2022/05/15 00:49:54;;;;;;;;;4.50;4.50;;;;;;;;5103424;27;61664;-85
2022/05/15 00:52:22;;;;;;;;;2.75;2.25;;;;;;;;5084670;27;61975;-85
2022/05/15 00:54:49;;;;;;;;;3.00;3.00;;;;;;;;5102836;27;61807;-86
2022/05/15 00:57:18;;;;;;;;;2.50;2.00;;;;;;;;5103076;27;61810;-86
2022/05/15 00:59:57;;;;;;;;;4.00;3.00;;;;;;;;5102598;27;62169;-85
2022/05/15 01:02:25;;;;;;;;;2.00;2.00;;;;;;;;5103337;27;62058;-85
2022/05/15 01:04:51;;;;;;;;;6.50;2.75;;;;;;;;5102718;27;62104;-84
2022/05/15 01:07:16;;;;;;;;;3.00;3.00;;;;;;;;5102946;27;61789;-84
2022/05/15 01:09:42;;;;;;;;;3.50;3.50;;;;;;;;5102651;27;61814;-84
2022/05/15 01:12:08;;;;;;;;;3.75;3.25;;;;;;;;5103290;27;61930;-85
2022/05/15 01:14:33;;;;;;;;;4.25;3.50;;;;;;;;5102251;27;62027;-84
2022/05/15 01:16:59;;;;;;;;;3.75;2.75;;;;;;;;5102771;27;61975;-84
2022/05/15 01:19:31;;;;;;;;;4.00;3.25;;;;;;;;5103032;27;61839;-85
2022/05/15 01:21:57;;;;;;;;;3.75;2.50;;;;;;;;5103238;27;61841;-85
2022/05/15 01:24:23;;;;;;;;;4.75;3.00;;;;;;;;5102305;27;62082;-85
2022/05/15 01:26:48;;;;;;;;;3.00;3.00;;;;;;;;5084336;27;61757;-85
2022/05/15 01:29:13;;;;;;;;;1.00;1.00;;;;;;;;5102765;27;61725;-85
2022/05/15 01:31:39;;;;;;;;;2.00;2.00;;;;;;;;5102773;27;61627;-85
2022/05/15 01:34:08;;;;;;;;;2.50;2.50;;;;;;;;5102350;27;61742;-85
2022/05/15 01:36:34;;;;;;;;;2.75;2.75;;;;;;;;5102804;27;61772;-85
2022/05/15 01:38:59;;;;;;;;;2.25;2.25;;;;;;;;5083831;27;61918;-85
2022/05/15 01:41:25;;;;;;;;;5.00;3.25;;;;;;;;5084617;27;62332;-85
2022/05/15 01:43:53;;;;;;;;;4.00;4.00;;;;;;;;5101668;27;61837;-85
2022/05/15 01:46:22;;;;;;;;;5.50;5.00;;;;;;;;5102521;27;62064;-85
2022/05/15 01:48:49;;;;;;;;;5.75;3.25;;;;;;;;5102281;27;61827;-85
2022/05/15 01:51:14;;;;;;;;;3.25;3.25;;;;;;;;5084349;27;62453;-85
2022/05/15 01:53:39;;;;;;;;;5.00;3.00;;;;;;;;5101461;27;61895;-85
2022/05/15 01:56:05;;;;;;;;;4.25;4.25;;;;;;;;5102567;27;62098;-85
2022/05/15 01:58:30;;;;;;;;;3.50;2.50;;;;;;;;5102452;27;62069;-84
2022/05/15 02:00:55;;;;;;;;;3.75;2.25;;;;;;;;5106079;27;62104;-85
2022/05/15 02:03:20;;;;;;;;;2.25;1.25;;;;;;;;5086982;27;63601;-85
2022/05/15 02:05:46;;;;;;;;;3.75;2.50;;;;;;;;5105845;27;61944;-85
2022/05/15 02:08:11;;;;;;;;;5.25;3.00;;;;;;;;5105809;27;62162;-85
2022/05/15 02:10:36;;;;;;;;;3.25;3.00;;;;;;;;5087637;27;61912;-85
2022/05/15 02:13:02;;;;;;;;;2.75;2.75;;;;;;;;5104993;27;62894;-85
2022/05/15 02:15:27;;;;;;;;;3.00;3.00;;;;;;;;5105937;27;61879;-85
2022/05/15 02:17:52;;;;;;;;;2.75;2.75;;;;;;;;5105638;27;61764;-85
2022/05/15 02:20:18;;;;;;;;;3.75;3.00;;;;;;;;5106070;27;61962;-85
2022/05/15 02:22:43;;;;;;;;;3.00;1.75;;;;;;;;5104846;27;61820;-85
2022/05/15 02:25:10;;;;;;;;;2.00;2.00;;;;;;;;5105834;27;61942;-85
2022/05/15 02:27:35;;;;;;;;;2.00;2.00;;;;;;;;5105349;27;61979;-85
2022/05/15 02:30:01;;;;;;;;;2.75;2.75;;;;;;;;5087322;27;62163;-85
2022/05/15 02:32:26;;;;;;;;;2.00;2.00;;;;;;;;5104941;27;61760;-85
2022/05/15 02:34:52;;;;;;;;;2.00;2.00;;;;;;;;5105449;27;61690;-85
2022/05/15 02:37:17;;;;;;;;;2.00;1.00;;;;;;;;5105609;27;62125;-85
2022/05/15 02:39:42;;;;;;;;;3.00;2.00;;;;;;;;5105286;27;61918;-85
2022/05/15 02:42:09;;;;;;;;;2.75;2.00;;;;;;;;5104623;27;61802;-85
2022/05/15 02:44:34;;;;;;;;;3.50;2.00;;;;;;;;5105495;27;62240;-85
2022/05/15 02:46:59;;;;;;;;;1.50;1.25;;;;;;;;5105258;27;61959;-85
2022/05/15 02:52:09;;;;;;;;;3.25;3.25;;;;;;;;5104638;27;61862;-85
2022/05/15 02:54:35;;;;;;;;;2.00;2.00;;;;;;;;5104716;27;62133;-85
2022/05/15 02:57:02;;;;;;;;;3.50;2.50;;;;;;;;5104886;27;61920;-85
2022/05/15 02:59:27;;;;;;;;;2.50;1.50;;;;;;;;5105115;27;61930;-85
2022/05/15 03:01:52;;;;;;;;;1.75;1.75;;;;;;;;5104560;27;62061;-85
2022/05/15 03:04:18;;;;;;;;;2.75;2.75;;;;;;;;5105049;27;61842;-85
2022/05/15 03:06:43;;;;;;;;;3.00;3.00;;;;;;;;5086821;27;61949;-85
2022/05/15 03:09:08;;;;;;;;;4.75;2.00;;;;;;;;5104291;27;61865;-84
2022/05/15 03:11:33;;;;;;;;;2.25;1.25;;;;;;;;5103417;27;62116;-85
2022/05/15 03:13:59;;;;;;;;;3.75;2.00;;;;;;;;5104677;27;61867;-85
2022/05/15 03:16:28;;;;;;;;;3.00;2.00;;;;;;;;5104960;27;61812;-85
2022/05/15 03:18:53;;;;;;;;;2.00;1.00;;;;;;;;5105137;27;61817;-85
2022/05/15 03:21:31;;;;;;;;;4.00;3.00;;;;;;;;5104246;27;61882;-85
2022/05/15 03:24:02;;;;;;;;;4.00;3.00;;;;;;;;5104318;27;61862;-85
2022/05/15 03:26:28;;;;;;;;;2.00;1.00;;;;;;;;5086242;27;61855;-85
2022/05/15 03:28:53;;;;;;;;;4.00;2.00;;;;;;;;5104956;27;61793;-85
2022/05/15 03:31:19;;;;;;;;;2.25;2.00;;;;;;;;5104084;27;61767;-85
2022/05/15 03:33:46;;;;;;;;;2.00;2.00;;;;;;;;5104663;27;61950;-85
2022/05/15 03:36:11;;;;;;;;;2.00;2.00;;;;;;;;5085970;27;62027;-85
2022/05/15 03:38:40;;;;;;;;;4.00;2.25;;;;;;;;5104205;27;62046;-85
2022/05/15 03:41:06;;;;;;;;;1.00;1.00;;;;;;;;5085025;27;63712;-85
2022/05/15 03:43:32;;;;;;;;;4.00;1.75;;;;;;;;5103892;27;61841;-85
2022/05/15 03:45:58;;;;;;;;;1.00;1.00;;;;;;;;5104514;27;62216;-85
2022/05/15 03:48:23;;;;;;;;;1.50;1.50;;;;;;;;5103927;27;61935;-85
2022/05/15 03:50:48;;;;;;;;;2.00;2.00;;;;;;;;5103724;27;62628;-85
2022/05/15 03:53:13;;;;;;;;;2.50;2.00;;;;;;;;5103677;27;61708;-85
2022/05/15 03:55:39;;;;;;;;;1.50;1.50;;;;;;;;5104464;27;61741;-85
2022/05/15 03:58:04;;;;;;;;;2.00;1.00;;;;;;;;5104143;27;62114;-85
2022/05/15 04:00:30;;;;;;;;;2.50;2.00;;;;;;;;5103739;27;61959;-85
2022/05/15 04:02:55;;;;;;;;;1.00;1.00;;;;;;;;5103961;27;61778;-85
2022/05/15 04:05:20;;;;;;;;;1.25;1.00;;;;;;;;5103789;27;61718;-85
2022/05/15 04:07:47;;;;;;;;;1.00;1.00;;;;;;;;5084941;27;61906;-85
2022/05/15 04:10:13;;;;;;;;;1.25;1.25;;;;;;;;5084660;27;63812;-85
2022/05/15 04:12:39;;;;;;;;;2.00;1.00;;;;;;;;5103701;27;61683;-85
2022/05/15 04:15:04;;;;;;;;;4.75;2.00;;;;;;;;5103331;27;62032;-85
2022/05/15 04:17:30;;;;;;;;;1.25;1.25;;;;;;;;5103527;27;61765;-85
2022/05/15 04:19:55;;;;;;;;;2.75;1.50;;;;;;;;5103347;27;62145;-85
2022/05/15 04:22:20;;;;;;;;;2.00;2.00;;;;;;;;5102998;27;62135;-85
2022/05/15 04:24:45;;;;;;;;;3.50;2.25;;;;;;;;5103426;27;61738;-85
2022/05/15 04:27:11;;;;;;;;;2.00;2.00;;;;;;;;5103608;27;61727;-85
2022/05/15 04:29:36;;;;;;;;;2.00;2.00;;;;;;;;5084186;27;62696;-85
2022/05/15 04:32:01;;;;;;;;;3.00;1.50;;;;;;;;5084852;27;61972;-85
2022/05/15 04:34:27;;;;;;;;;3.75;2.00;;;;;;;;5103105;27;62222;-85
2022/05/15 04:36:53;;;;;;;;;1.00;0.00;;;;;;;;5084796;27;61925;-84
2022/05/15 04:39:19;;;;;;;;;2.00;1.00;;;;;;;;5089955;27;63554;-85
2022/05/15 04:41:44;;;;;;;;;3.00;2.00;;;;;;;;5110528;27;61932;-85
2022/05/15 04:44:10;;;;;;;;;1.00;1.00;;;;;;;;5103343;27;61844;-85
2022/05/15 04:46:35;;;;;;;;;1.50;1.00;;;;;;;;5084836;27;61807;-85
2022/05/15 04:49:01;;;;;;;;;1.75;1.00;;;;;;;;5083780;27;64931;-85
2022/05/15 04:51:27;;;;;;;;;2.00;2.00;;;;;;;;5102759;27;61766;-85
2022/05/15 04:53:52;;;;;;;;;1.00;1.00;;;;;;;;5084621;27;61953;-85
2022/05/15 04:56:18;;;;;;;;;3.00;2.00;;;;;;;;5103092;27;61937;-85
2022/05/15 04:58:45;;;;;;;;;2.00;2.00;;;;;;;;5102572;27;61865;-85
2022/05/15 05:01:10;;;;;;;;;3.75;2.00;;;;;;;;5102794;27;62141;-85
2022/05/15 05:03:35;;;;;;;;;2.50;1.50;;;;;;;;5102932;27;61892;-85
2022/05/15 05:06:01;;;;;;;;;1.25;1.25;;;;;;;;5102871;27;61714;-85
2022/05/15 05:08:26;;;;;;;;;3.00;1.25;;;;;;;;5101769;27;61985;-85
2022/05/15 05:10:51;;;;;;;;;1.00;1.00;;;;;;;;5102901;27;61837;-84
2022/05/15 05:13:17;;;;;;;;;3.00;3.00;;;;;;;;5102867;27;61778;-85
2022/05/15 05:15:42;;;;;;;;;4.25;2.00;;;;;;;;5103196;27;61670;-85
2022/05/15 05:18:07;;;;;;;;;1.25;1.25;;;;;;;;5102515;27;61966;-85
2022/05/15 05:20:33;;;;;;;;;3.00;3.00;;;;;;;;5102436;27;61863;-85
2022/05/15 05:22:58;;;;;;;;;2.00;2.00;;;;;;;;5102895;27;61773;-85
2022/05/15 05:25:23;;;;;;;;;2.00;2.00;;;;;;;;5103237;27;61738;-85
2022/05/15 05:27:49;;;;;;;;;3.00;2.00;;;;;;;;5102059;27;61757;-85
2022/05/15 05:30:16;;;;;;;;;3.00;2.00;;;;;;;;5102864;27;61781;-85
2022/05/15 05:32:42;;;;;;;;;1.00;1.00;;;;;;;;5102878;27;61910;-85
2022/05/15 05:35:07;;;;;;;;;1.75;1.75;;;;;;;;5102095;27;61942;-85
2022/05/15 05:37:32;;;;;;;;;2.50;2.00;;;;;;;;5101909;27;62973;-85
2022/05/15 05:39:58;;;;;;;;;2.00;2.00;;;;;;;;5102389;27;61896;-85
2022/05/15 05:42:23;;;;;;;;;1.50;1.25;;;;;;;;5102806;27;61773;-85
2022/05/15 05:44:48;;;;;;;;;2.00;2.00;;;;;;;;5102732;27;61668;-85
2022/05/15 05:47:13;;;;;;;;;2.00;2.00;;;;;;;;5102334;27;62632;-85
2022/05/15 05:49:39;;;;;;;;;1.00;1.00;;;;;;;;5102150;27;61898;-85
2022/05/15 05:52:04;;;;;;;;;2.00;2.00;;;;;;;;5102119;27;62344;-83
2022/05/15 05:54:29;;;;;;;;;4.00;2.00;;;;;;;;5101625;27;61939;-83
2022/05/15 05:56:55;;;;;;;;;2.00;2.00;;;;;;;;5081942;27;64973;-82
2022/05/15 05:59:20;;;;;;;;;6.00;2.75;;;;;;;;5101916;27;61721;-83
2022/05/15 06:01:45;;;;;;;;;3.50;2.50;;;;;;;;5101683;27;61932;-83
2022/05/15 06:06:54;;;;;;;;;3.50;2.50;;;;;;;;5100676;27;61746;-82
2022/05/15 06:09:20;;;;;;;;;1.25;1.25;;;;;;;;5082874;27;61858;-84
2022/05/15 06:11:45;;;;;;;;;2.00;0.75;;;;;;;;5102321;27;61934;-85
2022/05/15 06:14:10;;;;;;;;;2.50;1.00;;;;;;;;5102170;27;62010;-83
2022/05/15 06:16:36;;;;;;;;;1.25;1.25;;;;;;;;5101155;27;61880;-84
2022/05/15 06:19:01;;;;;;;;;3.00;1.75;;;;;;;;5101825;27;62013;-84
2022/05/15 06:21:26;;;;;;;;;4.00;2.50;;;;;;;;5102146;27;61810;-84
2022/05/15 06:23:52;;;;;;;;;3.00;2.00;;;;;;;;5082817;27;62169;-84
2022/05/15 06:26:17;;;;;;;;;3.25;2.00;;;;;;;;5100762;27;62673;-82
2022/05/15 06:28:42;;;;;;;;;2.00;2.00;;;;;;;;5101501;27;62036;-84
2022/05/15 06:31:08;;;;;;;;;2.00;1.75;;;;;;;;5083522;27;62478;-84
2022/05/15 06:33:33;;;;;;;;;1.75;1.00;;;;;;;;5083666;27;61864;-86
2022/05/15 06:35:59;;;;;;;;;1.75;1.75;;;;;;;;5101408;27;61790;-85
2022/05/15 06:38:24;;;;;;;;;2.00;2.00;;;;;;;;5101659;27;62454;-82
2022/05/15 06:40:50;;;;;;;;;2.00;2.00;;;;;;;;5101864;27;61928;-84
2022/05/15 06:43:15;;;;;;;;;3.50;2.25;;;;;;;;5083765;27;61889;-82
2022/05/15 06:45:41;;;;;;;;;4.75;3.75;;;;;;;;5101778;27;62671;-85
2022/05/15 06:48:06;;;;;;;;;4.75;3.00;;;;;;;;5085735;27;61942;-82
2022/05/15 06:50:31;;;;;;;;;2.00;1.75;;;;;;;;5105338;27;62140;-83
2022/05/15 06:52:57;;;;;;;;;3.75;2.75;;;;;;;;5105096;27;62043;-83
2022/05/15 06:55:23;;;;;;;;;2.00;2.00;;;;;;;;5086016;27;64684;-84
2022/05/15 06:57:50;;;;;;;;;3.00;3.00;;;;;;;;5086742;27;61966;-85
2022/05/15 07:00:20;;;;;;;;;5.00;3.75;;;;;;;;5104400;27;61671;-81
2022/05/15 07:02:46;;;;;;;;;2.00;2.00;;;;;;;;5065906;28;61898;-82
2022/05/15 07:05:13;;;;;;;;;3.00;2.50;;;;;;;;5099264;27;64691;-81
2022/05/15 07:07:38;;;;;;;;;3.25;2.00;;;;;;;;5099866;27;61847;-82
2022/05/15 07:10:04;;;;;;;;;3.50;2.00;;;;;;;;5083467;28;61897;-82
2022/05/15 07:12:29;;;;;;;;;3.00;2.50;;;;;;;;5099992;27;61846;-82
2022/05/15 07:14:54;;;;;;;;;2.50;2.00;;;;;;;;5083515;28;61977;-82
2022/05/15 07:17:20;;;;;;;;;5.00;2.00;;;;;;;;5099603;27;62037;-83
2022/05/15 07:19:45;;;;;;;;;9.75;3.75;;;;;;;;5084119;28;61897;-82
2022/05/15 07:22:10;;;;;;;;;6.25;3.00;;;;;;;;5099479;27;61854;-92
2022/05/15 07:24:39;;;;;;;;;3.00;3.00;;;;;;;;5088934;27;62221;-89
2022/05/15 07:27:05;;;;;;;;;4.75;4.00;;;;;;;;5084982;27;62042;-86
2022/05/15 07:29:30;;;;;;;;;2.50;2.50;;;;;;;;5103244;27;61870;-80
2022/05/15 07:31:57;;;;;;;;;6.25;4.00;;;;;;;;5103267;27;61908;-79
2022/05/15 07:34:23;;;;;;;;;3.00;3.00;;;;;;;;5099988;27;61881;-82
2022/05/15 07:36:50;;;;;;;;;3.00;3.00;;;;;;;;5102646;27;61951;-79
2022/05/15 07:39:16;;;;;;;;;3.00;3.00;;;;;;;;5099665;27;61844;-80
2022/05/15 07:41:41;;;;;;;;;3.00;3.00;;;;;;;;5083509;27;61905;-80
2022/05/15 07:44:06;;;;;;;;;3.25;2.00;;;;;;;;5081995;27;63751;-80
2022/05/15 07:46:31;;;;;;;;;3.50;3.00;;;;;;;;5103488;27;61906;-80
2022/05/15 07:48:58;;;;;;;;;3.25;3.25;;;;;;;;5103760;27;61691;-80
2022/05/15 07:51:23;;;;;;;;;1.00;1.00;;;;;;;;5103639;27;62095;-79
2022/05/15 07:53:49;;;;;;;;;3.25;2.75;;;;;;;;5103066;27;62683;-79
2022/05/15 07:56:14;;;;;;;;;5.00;3.75;;;;;;;;5103208;27;61797;-79
2022/05/15 07:58:40;;;;;;;;;2.00;2.00;;;;;;;;5103676;27;61754;-79
2022/05/15 08:01:06;;;;;;;;;2.00;1.25;;;;;;;;5103751;27;61933;-79
2022/05/15 08:03:38;;;;;;;;;2.00;2.00;;;;;;;;5084677;27;64507;-78
2022/05/15 08:08:48;;;;;;;;;3.25;3.00;;;;;;;;5103442;27;61981;-79
2022/05/15 08:11:13;;;;;;;;;1.00;1.00;;;;;;;;5103643;27;62267;-79
2022/05/15 08:13:39;;;;;;;;;2.25;2.00;;;;;;;;5103009;27;63024;-78
2022/05/15 08:16:04;;;;;;;;;3.00;2.75;;;;;;;;5103952;27;61945;-81
2022/05/15 08:23:59;;;;;;;;;2.00;1.75;;;;;;;;5102718;27;61868;-79
2022/05/15 08:26:26;;;;;;;;;4.25;2.00;;;;;;;;5103210;27;62204;-78
2022/05/15 08:28:51;;;;;;;;;2.00;2.00;;;;;;;;5103141;27;61853;-78
2022/05/15 08:31:17;;;;;;;;;1.25;1.25;;;;;;;;5103423;27;61962;-78
2022/05/15 08:33:43;;;;;;;;;3.75;2.75;;;;;;;;5102962;27;62746;-78
2022/05/15 08:36:09;;;;;;;;;2.00;2.00;;;;;;;;5102888;27;61844;-78
2022/05/15 08:38:35;;;;;;;;;1.50;1.00;;;;;;;;5083939;27;62083;-77
2022/05/15 08:41:16;;;;;;;;;2.00;1.00;;;;;;;;5084016;27;61802;-78
2022/05/15 08:43:47;;;;;;;;;3.00;1.00;;;;;;;;5099395;27;61984;-78
2022/05/15 08:46:30;;;;;;;;;1.00;1.00;;;;;;;;5083822;27;61837;-80
2022/05/15 08:49:01;;;;;;;;;1.75;1.75;;;;;;;;5102086;27;61913;-80
2022/05/15 08:51:28;;;;;;;;;0.75;0.50;;;;;;;;5084118;27;62000;-78
2022/05/15 08:53:54;;;;;;;;;1.50;1.50;;;;;;;;5102289;27;61937;-78
2022/05/15 08:56:19;;;;;;;;;5.25;1.25;;;;;;;;5084032;27;62073;-83
2022/05/15 08:58:44;;;;;;;;;2.75;1.25;;;;;;;;5083687;27;61758;-80
2022/05/15 09:01:12;;;;;;;;;1.75;1.75;;;;;;;;5085258;27;62204;-79
2022/05/15 09:03:38;;;;;;;;;1.00;1.00;;;;;;;;5102659;27;63220;-77
2022/05/15 09:06:09;;;;;;;;;0.50;0.50;;;;;;;;5108273;27;61765;-76
2022/05/15 09:08:57;;;;;;;;;2.67;1.00;;;;;;;;5080726;27;61900;-76
2022/05/15 09:11:41;;;;;;;;;1.50;1.50;;;;;;;;5082402;27;62261;-76
2022/05/15 09:14:12;;;;;;;;;1.00;1.00;;;;;;;;5099390;27;62674;-76
2022/05/15 09:16:42;;;;;;;;;1.25;1.00;;;;;;;;5100963;27;61810;-77
2022/05/15 09:19:08;;;;;;;;;1.67;1.00;;;;;;;;5081339;27;62213;-77
2022/05/15 09:21:34;;;;;;;;;0.75;0.75;;;;;;;;5100312;27;61733;-79
2022/05/15 09:24:23;;;;;;;;;4.50;2.75;;;;;;;;5098550;27;62229;-78
2022/05/15 09:26:48;;;;;;;;;1.00;1.00;;;;;;;;5081386;27;62043;-76
2022/05/15 09:29:34;;;;;;;;;1.00;1.00;;;;;;;;5100643;27;61907;-75
2022/05/15 09:31:59;;;;;;;;;1.67;1.33;;;;;;;;5099309;27;62053;-75
2022/05/15 09:34:25;;;;;;;;;1.00;1.00;;;;;;;;5099931;27;62818;-86
2022/05/15 09:36:51;;;;;;;;;0.00;0.00;;;;;;;;5101098;27;61968;-88
2022/05/15 09:39:20;;;;;;;;;0.00;0.00;;;;;;;;5102736;27;61930;-83
2022/05/15 09:44:49;;;;;;;;;0.67;0.67;;;;;;;;5098062;27;61778;-83
2022/05/15 09:47:14;;;;;;;;;1.00;0.67;;;;;;;;5080471;27;62139;-85
2022/05/15 09:49:39;;;;;;;;;0.33;0.33;;;;;;;;5100697;27;61966;-85
2022/05/15 09:52:14;;;;;;;;;0.33;0.33;;;;;;;;5083026;27;61882;-84
2022/05/15 09:54:43;;;;;;;;;0.00;0.00;;;;;;;;5101366;27;61733;-86
2022/05/15 09:57:14;;;;;;;;;0.67;0.67;;;;;;;;5100120;27;61943;-82
2022/05/15 09:59:40;;;;;;;;;1.00;1.00;;;;;;;;5097621;27;62211;-84
2022/05/15 10:02:15;;;;;;;;;1.00;1.00;;;;;;;;5065522;27;61834;-84
2022/05/15 10:04:40;;;;;;;;;0.00;0.00;;;;;;;;5097312;27;62017;-84
2022/05/15 10:07:07;;;;;;;;;3.00;1.00;;;;;;;;5100879;27;62058;-86
2022/05/15 10:09:40;;;;;;;;;1.00;1.00;;;;;;;;5099271;27;61881;-85
2022/05/15 10:12:27;;;;;;;;;1.33;1.33;;;;;;;;5100769;27;61837;-85
2022/05/15 10:15:00;;;;;;;;;0.33;0.33;;;;;;;;5080154;27;64006;-85
2022/05/15 10:17:25;;;;;;;;;2.00;1.00;;;;;;;;5098503;27;62107;-85
2022/05/15 10:19:55;;;;;;;;;0.33;0.00;;;;;;;;5101662;27;61905;-87
2022/05/15 10:22:44;;;;;;;;;1.00;0.67;;;;;;;;5117521;27;61873;-86
2022/05/15 10:25:16;;;;;;;;;0.67;0.67;;;;;;;;5117385;27;62197;-84
2022/05/15 10:27:46;;;;;;;;;2.00;1.00;;;;;;;;5101618;27;62009;-82
2022/05/15 10:30:18;;;;;;;;;0.33;0.33;;;;;;;;5104250;27;62280;-84
2022/05/15 10:32:52;;;;;;;;;1.00;1.00;;;;;;;;5102203;27;61758;-85
2022/05/15 10:35:24;;;;;;;;;3.67;1.33;;;;;;;;5084786;27;63884;-84
2022/05/15 10:37:52;;;;;;;;;1.33;0.67;;;;;;;;5104572;27;61880;-85
2022/05/15 10:40:41;;;;;;;;;2.67;2.33;;;;;;;;5104676;27;61825;-85
2022/05/15 10:43:25;;;;;;;;;1.67;0.67;;;;;;;;5103642;27;61841;-81
2022/05/15 10:45:57;;;;;;;;;0.67;0.67;;;;;;;;5101341;27;61967;-81
2022/05/15 10:48:41;;;;;;;;;1.00;1.00;;;;;;;;5104547;27;62006;-83
2022/05/15 10:51:09;;;;;;;;;1.00;1.00;;;;;;;;5104772;27;62079;-83
2022/05/15 10:59:30;;;;;;;;;1.00;1.00;;;;;;;;5102908;27;62239;-81
2022/05/15 11:02:11;;;;;;;;;1.33;1.33;;;;;;;;5102906;27;61954;-81
2022/05/15 11:04:58;;;;;;;;;3.33;1.00;;;;;;;;5105069;27;61815;-81
2022/05/15 11:07:38;;;;;;;;;3.33;2.67;;;;;;;;5085259;27;63622;-81
2022/05/15 11:10:10;;;;;;;;;2.33;1.33;;;;;;;;5085857;27;61941;-82
2022/05/15 11:12:39;;;;;;;;;3.00;2.00;;;;;;;;5104559;27;61908;-82
2022/05/15 11:15:17;;;;;;;;;1.67;1.67;;;;;;;;5104162;27;61806;-82
2022/05/15 11:17:45;;;;;;;;;2.00;1.67;;;;;;;;5103935;27;61867;-82
2022/05/15 11:20:15;;;;;;;;;2.33;2.33;;;;;;;;5104564;27;61699;-83
2022/05/15 11:22:45;;;;;;;;;8.00;4.00;;;;;;;;5102631;27;62183;-82
2022/05/15 11:25:20;;;;;;;;;2.33;0.67;;;;;;;;5103221;27;61923;-81
2022/05/15 11:27:49;;;;;;;;;0.67;0.67;;;;;;;;5099513;27;61808;-82
2022/05/15 11:30:29;;;;;;;;;0.67;0.67;;;;;;;;5084616;27;62031;-81
2022/05/15 11:32:55;;;;;;;;;1.67;1.67;;;;;;;;5101312;27;61652;-82
2022/05/15 11:35:23;;;;;;;;;0.33;0.33;;;;;;;;5085170;27;62156;-80
2022/05/15 11:37:57;;;;;;;;;2.67;1.00;;;;;;;;5102574;27;61992;-84
2022/05/15 11:40:30;;;;;;;;;1.67;1.67;;;;;;;;5085440;27;61758;-89
2022/05/15 11:42:56;;;;;;;;;2.00;2.00;;;;;;;;5103323;27;61753;-84
2022/05/15 11:45:27;;;;;;;;;2.33;1.33;;;;;;;;5101903;27;61688;-88
2022/05/15 11:47:57;;;;;;;;;2.33;2.33;;;;;;;;5103076;27;61830;-85
2022/05/15 11:50:42;;;;;;;;;3.00;1.00;;;;;;;;5084647;27;61846;-86
2022/05/15 11:53:10;;;;;;;;;3.00;2.00;;;;;;;;5084340;27;62087;-85
2022/05/15 11:55:36;;;;;;;;;1.00;1.00;;;;;;;;5084025;27;61935;-86
2022/05/15 11:58:16;;;;;;;;;1.67;1.00;;;;;;;;5101996;27;62267;-86
2022/05/15 12:00:42;;;;;;;;;1.00;1.00;;;;;;;;5101897;27;61907;-84
2022/05/15 12:03:27;;;;;;;;;2.00;1.00;;;;;;;;5084567;27;62019;-84
2022/05/15 12:06:01;;;;;;;;;1.67;1.67;;;;;;;;5101220;27;61995;-84
2022/05/15 12:08:29;;;;;;;;;1.33;0.00;;;;;;;;5101176;27;64712;-85
2022/05/15 12:10:56;;;;;;;;;1.67;0.67;;;;;;;;5102897;27;61821;-85
2022/05/15 12:13:30;;;;;;;;;1.00;1.00;;;;;;;;5102347;27;62102;-83
2022/05/15 12:16:14;;;;;;;;;0.67;0.67;;;;;;;;5102173;27;61853;-84
2022/05/15 12:18:40;;;;;;;;;2.00;1.00;;;;;;;;5099680;27;61928;-82
2022/05/15 12:21:06;;;;;;;;;0.67;0.00;;;;;;;;5083132;27;61985;-84
2022/05/15 12:24:27;;;;;;;;;0.00;0.00;;;;;;;;5082160;27;62558;-83
2022/05/15 12:26:37;;;;;;;;;0.33;0.33;;;;;;;;5097941;27;61955;-84
2022/05/15 12:29:17;;;;;;;;;2.33;1.00;;;;;;;;5115151;27;63738;-84
2022/05/15 12:31:44;;;;;;;;;1.00;1.00;;;;;;;;5102999;27;61927;-84
2022/05/15 12:34:31;;;;;;;;;1.00;0.33;;;;;;;;5101379;27;61864;-83
2022/05/15 12:36:58;;;;;;;;;1.00;1.00;;;;;;;;5102345;27;61769;-85
2022/05/15 12:39:26;;;;;;;;;2.00;0.67;;;;;;;;5101997;27;62848;-86
2022/05/15 12:41:52;;;;;;;;;1.00;1.00;;;;;;;;5101562;27;61905;-85
2022/05/15 12:44:31;;;;;;;;;0.00;0.00;;;;;;;;5101669;27;62028;-84
2022/05/15 12:46:58;;;;;;;;;0.00;0.00;;;;;;;;5100707;27;61932;-83
2022/05/15 12:49:29;;;;;;;;;1.33;0.00;;;;;;;;5082573;27;63510;-83
2022/05/15 12:52:07;;;;;;;;;0.33;0.33;;;;;;;;5081280;27;61746;-83
2022/05/15 12:54:33;;;;;;;;;0.33;0.33;;;;;;;;5099428;27;61914;-84
2022/05/15 12:57:00;;;;;;;;;2.33;0.00;;;;;;;;5102068;27;61949;-83
2022/05/15 12:59:26;;;;;;;;;0.00;0.00;;;;;;;;5101361;27;62682;-84
2022/05/15 13:01:52;;;;;;;;;0.67;0.67;;;;;;;;5098783;27;61780;-84
2022/05/15 13:04:23;;;;;;;;;0.67;0.33;;;;;;;;5101196;27;61865;-82
2022/05/15 13:06:52;;;;;;;;;0.00;0.00;;;;;;;;5065850;27;62350;-82
2022/05/15 13:09:22;;;;;;;;;2.67;0.00;;;;;;;;5082142;27;63118;-84
2022/05/15 13:11:52;;;;;;;;;0.67;0.33;;;;;;;;5083251;27;62033;-84
2022/05/15 13:14:23;;;;;;;;;0.33;0.33;;;;;;;;5083163;27;61811;-83
2022/05/15 13:16:51;;;;;;;;;0.00;0.00;;;;;;;;5101340;27;61898;-85
2022/05/15 13:19:20;;;;;;;;;0.00;0.00;;;;;;;;5100654;27;62652;-83
2022/05/15 13:21:47;;;;;;;;;2.00;0.67;;;;;;;;5102472;27;62282;-84
2022/05/15 13:24:14;;;;;;;;;0.00;0.00;;;;;;;;5083267;27;61904;-85
2022/05/15 13:26:44;;;;;;;;;0.33;0.33;;;;;;;;5102650;27;61694;-86
2022/05/15 13:29:14;;;;;;;;;2.00;1.00;;;;;;;;5101569;27;62422;-85
2022/05/15 13:31:40;;;;;;;;;0.67;0.67;;;;;;;;5083122;27;61858;-80
2022/05/15 13:34:08;;;;;;;;;2.33;0.67;;;;;;;;5102146;27;61844;-81
2022/05/15 13:36:33;;;;;;;;;0.67;0.67;;;;;;;;5083786;27;61810;-81
2022/05/15 13:44:31;;;;;;;;;0.00;0.00;;;;;;;;5100242;27;62156;-81
2022/05/15 13:46:59;;;;;;;;;0.33;0.33;;;;;;;;5076411;27;61954;-81
2022/05/15 13:49:35;;;;;;;;;0.67;0.67;;;;;;;;5098825;27;62742;-82
2022/05/15 13:52:19;;;;;;;;;1.00;1.00;;;;;;;;5101532;27;61710;-82
2022/05/15 13:54:44;;;;;;;;;0.00;0.00;;;;;;;;5113714;27;61926;-82
2022/05/15 13:57:09;;;;;;;;;0.00;0.00;;;;;;;;5101324;27;62236;-82
2022/05/15 13:59:38;;;;;;;;;0.67;0.67;;;;;;;;5097581;27;62032;-83
2022/05/15 14:02:30;;;;;;;;;1.00;0.00;;;;;;;;5102664;27;61862;-82
2022/05/15 14:04:59;;;;;;;;;1.67;0.67;;;;;;;;5102083;27;62159;-83
2022/05/15 14:07:29;;;;;;;;;0.00;0.00;;;;;;;;5091129;27;61995;-84
2022/05/15 14:09:56;;;;;;;;;1.33;0.33;;;;;;;;5078042;27;64004;-84
2022/05/15 14:12:40;;;;;;;;;0.67;0.67;;;;;;;;5105175;27;61872;-84
2022/05/15 14:15:07;;;;;;;;;0.67;0.33;;;;;;;;5086155;27;61735;-84
2022/05/15 14:17:47;;;;;;;;;1.00;0.00;;;;;;;;5104238;27;62073;-84
2022/05/15 14:20:13;;;;;;;;;1.00;1.00;;;;;;;;5104333;27;61983;-87
2022/05/15 14:22:39;;;;;;;;;1.00;1.00;;;;;;;;5086600;27;62138;-88
2022/05/15 14:25:05;;;;;;;;;1.33;1.33;;;;;;;;5104899;27;61871;-86
2022/05/15 14:27:31;;;;;;;;;0.67;0.67;;;;;;;;5105405;27;61903;-85
2022/05/15 14:29:56;;;;;;;;;0.00;0.00;;;;;;;;5104763;27;61861;-84
2022/05/15 14:32:29;;;;;;;;;0.67;0.00;;;;;;;;5106843;27;62020;-84
2022/05/15 14:34:57;;;;;;;;;0.67;0.67;;;;;;;;5086628;27;61937;-86
2022/05/15 14:37:22;;;;;;;;;2.00;0.00;;;;;;;;5103288;27;61774;-87
2022/05/15 14:39:54;;;;;;;;;0.67;0.67;;;;;;;;5102411;27;61887;-85
2022/05/15 14:42:19;;;;;;;;;0.67;0.67;;;;;;;;5103018;27;61897;-86
2022/05/15 14:44:45;;;;;;;;;1.00;0.00;;;;;;;;5102624;27;61877;-84
2022/05/15 14:47:12;;;;;;;;;1.00;1.00;;;;;;;;5102377;27;61895;-85
2022/05/15 14:49:38;;;;;;;;;0.67;0.67;;;;;;;;5101817;27;62098;-85
2022/05/15 14:52:05;;;;;;;;;0.33;0.33;;;;;;;;5103773;27;61753;-82
2022/05/15 14:54:31;;;;;;;;;1.33;0.33;;;;;;;;5083622;28;61921;-85
2022/05/15 14:56:59;;;;;;;;;1.67;1.00;;;;;;;;5070079;27;61805;-84
2022/05/15 14:59:25;;;;;;;;;0.00;0.00;;;;;;;;5102258;27;61765;-85
2022/05/15 15:01:51;;;;;;;;;2.33;1.00;;;;;;;;5102805;27;61847;-83
2022/05/15 15:04:16;;;;;;;;;0.67;0.67;;;;;;;;5102812;27;62069;-84
2022/05/15 15:06:42;;;;;;;;;1.00;0.33;;;;;;;;5083735;27;62042;-87
2022/05/15 15:09:08;;;;;;;;;0.00;0.00;;;;;;;;5083083;27;64467;-80
2022/05/15 15:11:35;;;;;;;;;0.00;0.00;;;;;;;;5103446;27;61834;-78
2022/05/15 15:14:02;;;;;;;;;2.00;0.00;;;;;;;;5103029;27;61746;-79
2022/05/15 15:16:29;;;;;;;;;0.67;0.67;;;;;;;;5103427;27;61973;-78